sensor_id;sensor_type;location;lat;lon;timestamp;pressure;altitude;pressure_sealevel;temperature;humidity
22241;BME280;11289;52.524;13.694;2023-07-08T00:00:21;101490.00;;;19.51;53.82
22241;BME280;11289;52.524;13.694;2023-07-08T00:02:47;101489.47;;;19.45;53.74
22241;BME280;11289;52.524;13.694;2023-07-08T00:05:15;101486.50;;;19.38;54.06
22241;BME280;11289;52.524;13.694;2023-07-08T00:07:42;101493.69;;;19.36;54.37
22241;BME280;11289;52.524;13.694;2023-07-08T00:10:14;101489.63;;;19.33;54.30
22241;BME280;11289;52.524;13.694;2023-07-08T00:12:41;101478.59;;;19.24;54.31
22241;BME280;11289;52.524;13.694;2023-07-08T00:15:07;101454.56;;;19.11;54.49
22241;BME280;11289;52.524;13.694;2023-07-08T00:17:33;101479.31;;;19.21;54.66
22241;BME280;11289;52.524;13.694;2023-07-08T00:19:59;101484.06;;;19.17;54.78
22241;BME280;11289;52.524;13.694;2023-07-08T00:22:25;101481.00;;;19.06;55.03
22241;BME280;11289;52.524;13.694;2023-07-08T00:24:51;101478.41;;;18.98;55.20
22241;BME280;11289;52.524;13.694;2023-07-08T00:27:17;101469.16;;;18.97;55.39
22241;BME280;11289;52.524;13.694;2023-07-08T00:29:43;101474.69;;;18.93;55.12
22241;BME280;11289;52.524;13.694;2023-07-08T00:32:14;101473.88;;;18.93;55.11
22241;BME280;11289;52.524;13.694;2023-07-08T00:34:41;101476.16;;;18.87;55.40
22241;BME280;11289;52.524;13.694;2023-07-08T00:37:10;101464.34;;;18.82;55.50
22241;BME280;11289;52.524;13.694;2023-07-08T00:39:36;101456.84;;;18.70;55.63
22241;BME280;11289;52.524;13.694;2023-07-08T00:42:12;101488.13;;;18.84;55.42
22241;BME280;11289;52.524;13.694;2023-07-08T00:44:41;101482.69;;;18.75;55.32
22241;BME280;11289;52.524;13.694;2023-07-08T00:47:12;101483.97;;;18.78;55.04
22241;BME280;11289;52.524;13.694;2023-07-08T00:49:52;101475.91;;;18.76;55.39
22241;BME280;11289;52.524;13.694;2023-07-08T00:52:23;101481.53;;;18.76;55.14
22241;BME280;11289;52.524;13.694;2023-07-08T00:54:51;101467.56;;;18.64;55.37
22241;BME280;11289;52.524;13.694;2023-07-08T00:57:17;101475.94;;;18.60;55.66
22241;BME280;11289;52.524;13.694;2023-07-08T00:59:51;101473.03;;;18.57;56.07
22241;BME280;11289;52.524;13.694;2023-07-08T01:02:21;101485.81;;;18.54;55.99
22241;BME280;11289;52.524;13.694;2023-07-08T01:05:08;101482.63;;;18.56;55.72
22241;BME280;11289;52.524;13.694;2023-07-08T01:07:37;101470.41;;;18.48;55.77
22241;BME280;11289;52.524;13.694;2023-07-08T01:10:08;101477.66;;;18.49;55.79
22241;BME280;11289;52.524;13.694;2023-07-08T01:12:45;101446.66;;;18.30;55.83
22241;BME280;11289;52.524;13.694;2023-07-08T01:15:12;101475.47;;;18.42;56.10
22241;BME280;11289;52.524;13.694;2023-07-08T01:17:42;101466.25;;;18.42;56.17
22241;BME280;11289;52.524;13.694;2023-07-08T01:20:09;101475.03;;;18.40;56.59
22241;BME280;11289;52.524;13.694;2023-07-08T01:22:41;101466.06;;;18.35;56.75
22241;BME280;11289;52.524;13.694;2023-07-08T01:25:09;101471.16;;;18.29;56.90
22241;BME280;11289;52.524;13.694;2023-07-08T01:27:38;101462.63;;;18.25;56.85
22241;BME280;11289;52.524;13.694;2023-07-08T01:30:05;101461.00;;;18.24;56.88
22241;BME280;11289;52.524;13.694;2023-07-08T01:32:38;101459.81;;;18.25;56.25
22241;BME280;11289;52.524;13.694;2023-07-08T01:35:05;101448.84;;;18.20;56.50
22241;BME280;11289;52.524;13.694;2023-07-08T01:37:49;101452.84;;;18.19;56.79
22241;BME280;11289;52.524;13.694;2023-07-08T01:40:30;101463.63;;;18.17;56.45
22241;BME280;11289;52.524;13.694;2023-07-08T01:42:57;101459.53;;;18.15;56.74
22241;BME280;11289;52.524;13.694;2023-07-08T01:45:27;101448.47;;;18.06;56.63
22241;BME280;11289;52.524;13.694;2023-07-08T01:47:55;101450.13;;;18.07;56.58
22241;BME280;11289;52.524;13.694;2023-07-08T01:50:23;101444.50;;;18.07;56.41
22241;BME280;11289;52.524;13.694;2023-07-08T01:52:51;101448.13;;;18.07;57.02
22241;BME280;11289;52.524;13.694;2023-07-08T01:55:22;101449.84;;;17.96;57.08
22241;BME280;11289;52.524;13.694;2023-07-08T01:57:51;101454.53;;;17.92;57.17
22241;BME280;11289;52.524;13.694;2023-07-08T02:00:19;101454.44;;;17.88;57.34
22241;BME280;11289;52.524;13.694;2023-07-08T02:02:45;101449.78;;;17.80;57.34
22241;BME280;11289;52.524;13.694;2023-07-08T02:05:11;101453.78;;;17.79;57.42
22241;BME280;11289;52.524;13.694;2023-07-08T02:07:37;101447.50;;;17.70;57.53
22241;BME280;11289;52.524;13.694;2023-07-08T02:10:04;101450.44;;;17.73;57.39
22241;BME280;11289;52.524;13.694;2023-07-08T02:12:30;101443.91;;;17.69;57.39
22241;BME280;11289;52.524;13.694;2023-07-08T02:14:56;101449.16;;;17.71;57.38
22241;BME280;11289;52.524;13.694;2023-07-08T02:17:22;101453.03;;;17.66;57.52
22241;BME280;11289;52.524;13.694;2023-07-08T02:19:48;101429.81;;;17.53;57.73
22241;BME280;11289;52.524;13.694;2023-07-08T02:22:14;101432.06;;;17.48;57.90
22241;BME280;11289;52.524;13.694;2023-07-08T02:24:40;101450.09;;;17.47;58.26
22241;BME280;11289;52.524;13.694;2023-07-08T02:27:06;101462.34;;;17.54;58.07
22241;BME280;11289;52.524;13.694;2023-07-08T02:29:32;101454.16;;;17.49;58.04
22241;BME280;11289;52.524;13.694;2023-07-08T02:31:58;101446.09;;;17.48;58.05
22241;BME280;11289;52.524;13.694;2023-07-08T02:34:24;101453.25;;;17.45;58.16
22241;BME280;11289;52.524;13.694;2023-07-08T02:36:50;101455.97;;;17.42;58.05
22241;BME280;11289;52.524;13.694;2023-07-08T02:39:16;101450.72;;;17.40;58.31
22241;BME280;11289;52.524;13.694;2023-07-08T02:41:42;101432.38;;;17.30;58.35
22241;BME280;11289;52.524;13.694;2023-07-08T02:44:08;101446.88;;;17.32;58.45
22241;BME280;11289;52.524;13.694;2023-07-08T02:46:33;101445.97;;;17.28;58.75
22241;BME280;11289;52.524;13.694;2023-07-08T02:48:59;101448.66;;;17.25;58.47
22241;BME280;11289;52.524;13.694;2023-07-08T02:51:25;101441.31;;;17.20;58.57
22241;BME280;11289;52.524;13.694;2023-07-08T02:53:51;101441.19;;;17.16;58.85
22241;BME280;11289;52.524;13.694;2023-07-08T02:56:17;101440.19;;;17.09;58.88
22241;BME280;11289;52.524;13.694;2023-07-08T02:58:43;101430.47;;;17.06;59.04
22241;BME280;11289;52.524;13.694;2023-07-08T03:01:09;101430.47;;;17.06;58.98
22241;BME280;11289;52.524;13.694;2023-07-08T03:03:35;101436.09;;;17.06;59.44
22241;BME280;11289;52.524;13.694;2023-07-08T03:06:03;101436.09;;;17.06;59.54
22241;BME280;11289;52.524;13.694;2023-07-08T03:08:31;101439.63;;;17.03;59.67
22241;BME280;11289;52.524;13.694;2023-07-08T03:10:59;101434.16;;;16.94;59.65
22241;BME280;11289;52.524;13.694;2023-07-08T03:13:26;101441.41;;;16.95;59.72
22241;BME280;11289;52.524;13.694;2023-07-08T03:15:53;101438.94;;;16.94;59.87
22241;BME280;11289;52.524;13.694;2023-07-08T03:18:21;101445.47;;;16.98;59.71
22241;BME280;11289;52.524;13.694;2023-07-08T03:20:49;101432.63;;;16.97;60.08
22241;BME280;11289;52.524;13.694;2023-07-08T03:23:15;101433.34;;;16.94;60.04
22241;BME280;11289;52.524;13.694;2023-07-08T03:25:41;101440.56;;;16.95;60.01
22241;BME280;11289;52.524;13.694;2023-07-08T03:28:08;101421.88;;;16.86;60.10
22241;BME280;11289;52.524;13.694;2023-07-08T03:30:41;101431.34;;;16.94;60.14
22241;BME280;11289;52.524;13.694;2023-07-08T03:33:08;101430.41;;;16.90;60.07
22241;BME280;11289;52.524;13.694;2023-07-08T03:35:35;101438.38;;;16.88;60.21
22241;BME280;11289;52.524;13.694;2023-07-08T03:38:01;101435.91;;;16.86;60.13
22241;BME280;11289;52.524;13.694;2023-07-08T03:40:27;101441.97;;;16.88;60.19
22241;BME280;11289;52.524;13.694;2023-07-08T03:42:53;101417.56;;;16.77;60.28
22241;BME280;11289;52.524;13.694;2023-07-08T03:45:19;101429.81;;;16.84;60.55
22241;BME280;11289;52.524;13.694;2023-07-08T03:47:45;101433.44;;;16.85;60.42
22241;BME280;11289;52.524;13.694;2023-07-08T03:50:17;101431.09;;;16.87;60.88
22241;BME280;11289;52.524;13.694;2023-07-08T03:52:45;101424.81;;;16.78;60.64
22241;BME280;11289;52.524;13.694;2023-07-08T03:55:12;101428.44;;;16.78;61.15
22241;BME280;11289;52.524;13.694;2023-07-08T03:57:38;101438.94;;;16.81;61.20
22241;BME280;11289;52.524;13.694;2023-07-08T04:00:05;101440.13;;;16.80;61.47
22241;BME280;11289;52.524;13.694;2023-07-08T04:02:35;101438.00;;;16.77;61.48
22241;BME280;11289;52.524;13.694;2023-07-08T04:05:02;101434.50;;;16.80;61.80
22241;BME280;11289;52.524;13.694;2023-07-08T04:07:29;101422.94;;;16.69;62.00
22241;BME280;11289;52.524;13.694;2023-07-08T04:09:55;101436.03;;;16.78;62.15
22241;BME280;11289;52.524;13.694;2023-07-08T04:12:21;101418.06;;;16.66;62.76
22241;BME280;11289;52.524;13.694;2023-07-08T04:14:47;101434.03;;;16.78;62.70
22241;BME280;11289;52.524;13.694;2023-07-08T04:17:14;101430.50;;;16.81;62.38
22241;BME280;11289;52.524;13.694;2023-07-08T04:19:40;101423.63;;;16.79;62.67
22241;BME280;11289;52.524;13.694;2023-07-08T04:22:08;101425.25;;;16.80;62.67
22241;BME280;11289;52.524;13.694;2023-07-08T04:24:34;101436.25;;;16.85;63.02
22241;BME280;11289;52.524;13.694;2023-07-08T04:27:00;101426.78;;;16.77;63.34
22241;BME280;11289;52.524;13.694;2023-07-08T04:29:26;101420.50;;;16.80;63.36
22241;BME280;11289;52.524;13.694;2023-07-08T04:31:52;101438.13;;;16.93;63.14
22241;BME280;11289;52.524;13.694;2023-07-08T04:34:18;101424.44;;;16.92;63.41
22241;BME280;11289;52.524;13.694;2023-07-08T04:36:45;101422.00;;;16.90;63.51
22241;BME280;11289;52.524;13.694;2023-07-08T04:39:11;101423.63;;;16.91;63.40
22241;BME280;11289;52.524;13.694;2023-07-08T04:41:40;101442.53;;;17.07;63.81
22241;BME280;11289;52.524;13.694;2023-07-08T04:44:07;101423.25;;;17.05;63.44
22241;BME280;11289;52.524;13.694;2023-07-08T04:46:37;101436.78;;;17.15;63.56
22241;BME280;11289;52.524;13.694;2023-07-08T04:49:06;101426.38;;;17.16;63.79
22241;BME280;11289;52.524;13.694;2023-07-08T04:51:33;101425.41;;;17.24;64.20
22241;BME280;11289;52.524;13.694;2023-07-08T04:53:59;101403.88;;;17.28;64.05
22241;BME280;11289;52.524;13.694;2023-07-08T04:56:27;101443.78;;;17.66;64.26
22241;BME280;11289;52.524;13.694;2023-07-08T04:59:01;101431.13;;;17.72;63.84
22241;BME280;11289;52.524;13.694;2023-07-08T05:01:28;101414.19;;;17.84;63.65
22241;BME280;11289;52.524;13.694;2023-07-08T05:03:54;101417.13;;;18.04;63.00
22241;BME280;11289;52.524;13.694;2023-07-08T05:06:20;101444.31;;;18.32;62.38
22241;BME280;11289;52.524;13.694;2023-07-08T05:08:45;101443.03;;;18.45;62.18
22241;BME280;11289;52.524;13.694;2023-07-08T05:11:11;101440.13;;;18.57;61.35
22241;BME280;11289;52.524;13.694;2023-07-08T05:13:37;101447.69;;;18.73;59.61
22241;BME280;11289;52.524;13.694;2023-07-08T05:16:04;101438.22;;;18.81;60.41
22241;BME280;11289;52.524;13.694;2023-07-08T05:18:30;101432.41;;;18.90;60.42
22241;BME280;11289;52.524;13.694;2023-07-08T05:20:56;101435.81;;;18.99;60.29
22241;BME280;11289;52.524;13.694;2023-07-08T05:23:22;101440.06;;;19.09;59.41
22241;BME280;11289;52.524;13.694;2023-07-08T05:25:48;101442.59;;;19.14;59.53
22241;BME280;11289;52.524;13.694;2023-07-08T05:28:14;101424.50;;;19.15;59.90
22241;BME280;11289;52.524;13.694;2023-07-08T05:30:40;101428.72;;;19.25;59.98
22241;BME280;11289;52.524;13.694;2023-07-08T05:33:07;101439.34;;;19.31;60.00
22241;BME280;11289;52.524;13.694;2023-07-08T05:35:34;101444.66;;;19.37;59.89
22241;BME280;11289;52.524;13.694;2023-07-08T05:38:01;101436.28;;;19.40;59.46
22241;BME280;11289;52.524;13.694;2023-07-08T05:40:27;101430.72;;;19.44;59.28
22241;BME280;11289;52.524;13.694;2023-07-08T05:42:53;101437.50;;;19.62;59.04
22241;BME280;11289;52.524;13.694;2023-07-08T05:45:19;101442.31;;;19.81;58.58
22241;BME280;11289;52.524;13.694;2023-07-08T05:47:45;101448.75;;;20.05;57.13
22241;BME280;11289;52.524;13.694;2023-07-08T05:50:11;101449.19;;;20.30;56.84
22241;BME280;11289;52.524;13.694;2023-07-08T05:52:37;101443.56;;;20.57;56.96
22241;BME280;11289;52.524;13.694;2023-07-08T05:55:04;101449.31;;;20.91;56.73
22241;BME280;11289;52.524;13.694;2023-07-08T05:57:30;101439.06;;;21.10;54.20
22241;BME280;11289;52.524;13.694;2023-07-08T05:59:56;101451.44;;;21.32;52.96
22241;BME280;11289;52.524;13.694;2023-07-08T06:02:22;101446.91;;;21.54;52.20
22241;BME280;11289;52.524;13.694;2023-07-08T06:04:51;101444.78;;;21.85;51.69
22241;BME280;11289;52.524;13.694;2023-07-08T06:07:17;101454.41;;;22.21;51.63
22241;BME280;11289;52.524;13.694;2023-07-08T06:09:43;101453.53;;;22.58;49.63
22241;BME280;11289;52.524;13.694;2023-07-08T06:12:10;101439.91;;;22.86;50.18
22241;BME280;11289;52.524;13.694;2023-07-08T06:14:36;101445.28;;;23.09;48.65
22241;BME280;11289;52.524;13.694;2023-07-08T06:17:03;101433.28;;;23.30;48.71
22241;BME280;11289;52.524;13.694;2023-07-08T06:19:29;101444.69;;;23.59;48.69
22241;BME280;11289;52.524;13.694;2023-07-08T06:21:55;101460.16;;;23.87;48.03
22241;BME280;11289;52.524;13.694;2023-07-08T06:24:21;101458.97;;;24.20;46.57
22241;BME280;11289;52.524;13.694;2023-07-08T06:26:47;101464.63;;;24.52;45.53
22241;BME280;11289;52.524;13.694;2023-07-08T06:29:13;101465.47;;;24.67;44.86
22241;BME280;11289;52.524;13.694;2023-07-08T06:31:39;101462.16;;;24.87;44.45
22241;BME280;11289;52.524;13.694;2023-07-08T06:34:05;101460.50;;;25.04;43.66
22241;BME280;11289;52.524;13.694;2023-07-08T06:36:31;101455.59;;;25.15;44.18
22241;BME280;11289;52.524;13.694;2023-07-08T06:38:57;101464.06;;;25.33;44.76
22241;BME280;11289;52.524;13.694;2023-07-08T06:41:23;101450.56;;;25.48;43.57
22241;BME280;11289;52.524;13.694;2023-07-08T06:43:49;101454.50;;;25.72;43.42
22241;BME280;11289;52.524;13.694;2023-07-08T06:46:16;101461.19;;;26.08;43.41
22241;BME280;11289;52.524;13.694;2023-07-08T06:48:42;101460.91;;;26.40;41.82
22241;BME280;11289;52.524;13.694;2023-07-08T06:51:08;101456.47;;;26.35;41.73
22241;BME280;11289;52.524;13.694;2023-07-08T06:53:34;101451.44;;;26.54;42.05
22241;BME280;11289;52.524;13.694;2023-07-08T06:56:00;101453.88;;;26.93;41.42
22241;BME280;11289;52.524;13.694;2023-07-08T06:58:28;101444.75;;;27.09;40.14
22241;BME280;11289;52.524;13.694;2023-07-08T07:00:54;101441.09;;;27.09;40.24
22241;BME280;11289;52.524;13.694;2023-07-08T07:03:20;101445.25;;;27.01;40.26
22241;BME280;11289;52.524;13.694;2023-07-08T07:05:46;101449.13;;;27.18;40.94
22241;BME280;11289;52.524;13.694;2023-07-08T07:08:12;101446.53;;;27.31;39.04
22241;BME280;11289;52.524;13.694;2023-07-08T07:10:38;101449.56;;;27.47;38.17
22241;BME280;11289;52.524;13.694;2023-07-08T07:13:03;101456.75;;;27.59;37.22
22241;BME280;11289;52.524;13.694;2023-07-08T07:15:30;101440.34;;;27.67;38.09
22241;BME280;11289;52.524;13.694;2023-07-08T07:17:56;101454.81;;;28.07;37.61
22241;BME280;11289;52.524;13.694;2023-07-08T07:20:22;101453.97;;;28.34;37.09
22241;BME280;11289;52.524;13.694;2023-07-08T07:22:48;101456.75;;;28.37;36.53
22241;BME280;11289;52.524;13.694;2023-07-08T07:25:15;101457.06;;;28.19;35.69
22241;BME280;11289;52.524;13.694;2023-07-08T07:27:41;101446.63;;;28.56;35.15
22241;BME280;11289;52.524;13.694;2023-07-08T07:30:07;101446.03;;;28.89;33.95
22241;BME280;11289;52.524;13.694;2023-07-08T07:32:33;101444.63;;;29.17;34.59
22241;BME280;11289;52.524;13.694;2023-07-08T07:35:00;101438.47;;;29.39;33.39
22241;BME280;11289;52.524;13.694;2023-07-08T07:37:26;101438.13;;;29.37;33.39
22241;BME280;11289;52.524;13.694;2023-07-08T07:39:52;101447.47;;;29.57;34.53
22241;BME280;11289;52.524;13.694;2023-07-08T07:42:19;101448.81;;;29.69;34.48
22241;BME280;11289;52.524;13.694;2023-07-08T07:44:45;101449.88;;;29.95;33.18
22241;BME280;11289;52.524;13.694;2023-07-08T07:47:14;101447.16;;;30.04;33.05
22241;BME280;11289;52.524;13.694;2023-07-08T07:49:46;101431.44;;;30.13;32.01
22241;BME280;11289;52.524;13.694;2023-07-08T07:52:12;101441.09;;;30.02;32.98
22241;BME280;11289;52.524;13.694;2023-07-08T07:54:38;101426.59;;;30.10;33.47
22241;BME280;11289;52.524;13.694;2023-07-08T07:57:05;101436.34;;;30.45;32.92
22241;BME280;11289;52.524;13.694;2023-07-08T07:59:31;101428.72;;;30.84;33.11
22241;BME280;11289;52.524;13.694;2023-07-08T08:01:57;101429.47;;;30.72;33.47
22241;BME280;11289;52.524;13.694;2023-07-08T08:04:23;101438.00;;;30.88;33.07
22241;BME280;11289;52.524;13.694;2023-07-08T08:06:49;101453.16;;;31.18;30.73
22241;BME280;11289;52.524;13.694;2023-07-08T08:09:16;101434.69;;;31.06;31.97
22241;BME280;11289;52.524;13.694;2023-07-08T08:11:42;101437.34;;;30.97;32.02
22241;BME280;11289;52.524;13.694;2023-07-08T08:14:08;101436.06;;;31.15;32.15
22241;BME280;11289;52.524;13.694;2023-07-08T08:16:34;101436.31;;;31.33;31.03
22241;BME280;11289;52.524;13.694;2023-07-08T08:19:00;101424.97;;;31.42;29.67
22241;BME280;11289;52.524;13.694;2023-07-08T08:21:27;101428.06;;;31.48;30.93
22241;BME280;11289;52.524;13.694;2023-07-08T08:23:53;101438.75;;;31.86;30.84
22241;BME280;11289;52.524;13.694;2023-07-08T08:26:19;101431.84;;;32.22;30.13
22241;BME280;11289;52.524;13.694;2023-07-08T08:28:45;101435.47;;;32.36;28.78
22241;BME280;11289;52.524;13.694;2023-07-08T08:31:11;101423.59;;;32.24;28.78
22241;BME280;11289;52.524;13.694;2023-07-08T08:33:37;101442.72;;;32.40;27.68
22241;BME280;11289;52.524;13.694;2023-07-08T08:36:03;101423.72;;;32.43;27.20
22241;BME280;11289;52.524;13.694;2023-07-08T08:38:29;101443.06;;;32.42;27.23
22241;BME280;11289;52.524;13.694;2023-07-08T08:40:56;101444.16;;;32.71;26.96
22241;BME280;11289;52.524;13.694;2023-07-08T08:43:30;101428.09;;;32.83;26.34
22241;BME280;11289;52.524;13.694;2023-07-08T08:46:09;101442.06;;;32.93;25.84
22241;BME280;11289;52.524;13.694;2023-07-08T08:48:53;101446.31;;;33.11;26.01
22241;BME280;11289;52.524;13.694;2023-07-08T08:51:22;101448.78;;;33.44;25.88
22241;BME280;11289;52.524;13.694;2023-07-08T08:53:55;101427.56;;;33.51;24.88
22241;BME280;11289;52.524;13.694;2023-07-08T08:56:32;101448.25;;;33.67;25.33
22241;BME280;11289;52.524;13.694;2023-07-08T08:59:24;101449.38;;;34.11;24.59
22241;BME280;11289;52.524;13.694;2023-07-08T09:01:54;101451.13;;;33.99;24.14
22241;BME280;11289;52.524;13.694;2023-07-08T09:04:24;101445.09;;;34.25;24.18
22241;BME280;11289;52.524;13.694;2023-07-08T09:06:58;101439.38;;;34.34;23.80
22241;BME280;11289;52.524;13.694;2023-07-08T09:09:41;101439.22;;;34.47;23.30
22241;BME280;11289;52.524;13.694;2023-07-08T09:12:20;101442.59;;;34.64;21.64
22241;BME280;11289;52.524;13.694;2023-07-08T09:14:48;101446.91;;;34.68;22.96
22241;BME280;11289;52.524;13.694;2023-07-08T09:17:31;101442.44;;;34.86;22.99
22241;BME280;11289;52.524;13.694;2023-07-08T09:22:41;101437.91;;;35.22;22.02
22241;BME280;11289;52.524;13.694;2023-07-08T09:25:33;101441.25;;;35.30;21.80
22241;BME280;11289;52.524;13.694;2023-07-08T09:28:00;101438.31;;;35.48;21.35
22241;BME280;11289;52.524;13.694;2023-07-08T09:30:26;101439.31;;;35.45;21.59
22241;BME280;11289;52.524;13.694;2023-07-08T09:32:54;101433.97;;;35.53;21.83
22241;BME280;11289;52.524;13.694;2023-07-08T09:35:37;101442.38;;;35.75;21.51
22241;BME280;11289;52.524;13.694;2023-07-08T09:38:09;101444.19;;;35.63;19.66
22241;BME280;11289;52.524;13.694;2023-07-08T09:40:35;101442.84;;;35.73;20.77
22241;BME280;11289;52.524;13.694;2023-07-08T09:43:26;101442.06;;;35.73;19.18
22241;BME280;11289;52.524;13.694;2023-07-08T09:45:57;101443.59;;;35.93;19.68
22241;BME280;11289;52.524;13.694;2023-07-08T09:48:26;101443.41;;;35.96;19.19
22241;BME280;11289;52.524;13.694;2023-07-08T09:50:54;101439.41;;;35.94;20.44
22241;BME280;11289;52.524;13.694;2023-07-08T09:53:22;101438.31;;;36.15;19.68
22241;BME280;11289;52.524;13.694;2023-07-08T09:55:49;101435.72;;;36.17;20.03
22241;BME280;11289;52.524;13.694;2023-07-08T09:58:25;101437.34;;;36.18;19.34
22241;BME280;11289;52.524;13.694;2023-07-08T10:00:55;101432.53;;;36.39;19.36
22241;BME280;11289;52.524;13.694;2023-07-08T10:03:32;101427.22;;;36.62;19.22
22241;BME280;11289;52.524;13.694;2023-07-08T10:06:04;101429.09;;;36.50;18.71
22241;BME280;11289;52.524;13.694;2023-07-08T10:08:39;101430.22;;;36.68;19.21
22241;BME280;11289;52.524;13.694;2023-07-08T10:11:29;101435.09;;;37.16;18.91
22241;BME280;11289;52.524;13.694;2023-07-08T10:16:57;101428.97;;;36.45;18.37
22241;BME280;11289;52.524;13.694;2023-07-08T10:19:23;101426.97;;;36.36;17.94
22241;BME280;11289;52.524;13.694;2023-07-08T10:22:07;101425.53;;;36.07;18.07
22241;BME280;11289;52.524;13.694;2023-07-08T10:30:25;101433.72;;;36.33;19.04
22241;BME280;11289;52.524;13.694;2023-07-08T10:33:35;101417.53;;;36.50;17.62
22241;BME280;11289;52.524;13.694;2023-07-08T10:36:42;101420.53;;;36.56;17.58
22241;BME280;11289;52.524;13.694;2023-07-08T10:42:23;101415.44;;;37.35;17.31
22241;BME280;11289;52.524;13.694;2023-07-08T10:45:06;101404.44;;;37.39;17.75
22241;BME280;11289;52.524;13.694;2023-07-08T10:55:37;101398.66;;;37.09;17.57
22241;BME280;11289;52.524;13.694;2023-07-08T10:58:28;101407.25;;;36.88;17.07
22241;BME280;11289;52.524;13.694;2023-07-08T11:01:25;101400.47;;;37.21;17.90
22241;BME280;11289;52.524;13.694;2023-07-08T11:06:59;101391.22;;;37.68;17.28
22241;BME280;11289;52.524;13.694;2023-07-08T11:10:05;101382.81;;;38.05;16.71
22241;BME280;11289;52.524;13.694;2023-07-08T11:15:18;101391.75;;;37.51;17.48
22241;BME280;11289;52.524;13.694;2023-07-08T11:21:07;101393.28;;;37.32;18.09
22241;BME280;11289;52.524;13.694;2023-07-08T11:23:45;101386.13;;;37.98;17.79
22241;BME280;11289;52.524;13.694;2023-07-08T11:26:29;101398.97;;;38.59;17.50
22241;BME280;11289;52.524;13.694;2023-07-08T11:29:00;101392.41;;;38.58;16.57
22241;BME280;11289;52.524;13.694;2023-07-08T11:31:31;101392.88;;;39.04;16.27
22241;BME280;11289;52.524;13.694;2023-07-08T11:33:59;101384.75;;;39.40;15.99
22241;BME280;11289;52.524;13.694;2023-07-08T11:36:27;101384.66;;;39.02;15.60
22241;BME280;11289;52.524;13.694;2023-07-08T11:38:55;101381.16;;;38.92;16.75
22241;BME280;11289;52.524;13.694;2023-07-08T11:41:24;101385.69;;;38.99;16.11
22241;BME280;11289;52.524;13.694;2023-07-08T11:43:53;101377.66;;;39.46;16.33
22241;BME280;11289;52.524;13.694;2023-07-08T11:46:24;101381.63;;;39.86;15.91
22241;BME280;11289;52.524;13.694;2023-07-08T11:48:52;101378.22;;;39.50;15.22
22241;BME280;11289;52.524;13.694;2023-07-08T11:51:24;101369.25;;;39.54;15.59
22241;BME280;11289;52.524;13.694;2023-07-08T11:54:19;101365.16;;;39.72;15.38
22241;BME280;11289;52.524;13.694;2023-07-08T11:59:24;101358.78;;;40.17;15.53
22241;BME280;11289;52.524;13.694;2023-07-08T12:01:54;101358.63;;;40.49;14.74
22241;BME280;11289;52.524;13.694;2023-07-08T12:04:32;101363.09;;;40.44;14.69
22241;BME280;11289;52.524;13.694;2023-07-08T12:07:11;101348.75;;;40.18;14.52
22241;BME280;11289;52.524;13.694;2023-07-08T12:09:44;101353.97;;;40.02;15.42
22241;BME280;11289;52.524;13.694;2023-07-08T12:12:18;101359.44;;;40.55;16.03
22241;BME280;11289;52.524;13.694;2023-07-08T12:14:45;101355.69;;;40.43;14.70
22241;BME280;11289;52.524;13.694;2023-07-08T12:17:13;101361.84;;;39.96;14.99
22241;BME280;11289;52.524;13.694;2023-07-08T12:19:45;101341.00;;;39.98;15.47
22241;BME280;11289;52.524;13.694;2023-07-08T12:22:12;101341.59;;;40.08;14.92
22241;BME280;11289;52.524;13.694;2023-07-08T12:24:40;101351.66;;;40.18;15.51
22241;BME280;11289;52.524;13.694;2023-07-08T12:27:09;101343.88;;;39.49;14.50
22241;BME280;11289;52.524;13.694;2023-07-08T12:29:35;101333.44;;;39.25;15.52
22241;BME280;11289;52.524;13.694;2023-07-08T12:32:02;101339.13;;;38.82;16.33
22241;BME280;11289;52.524;13.694;2023-07-08T12:34:28;101338.38;;;38.61;16.61
22241;BME280;11289;52.524;13.694;2023-07-08T12:36:55;101334.31;;;39.05;16.02
22241;BME280;11289;52.524;13.694;2023-07-08T12:39:21;101332.50;;;39.08;15.75
22241;BME280;11289;52.524;13.694;2023-07-08T12:41:47;101330.38;;;39.08;15.29
22241;BME280;11289;52.524;13.694;2023-07-08T12:44:20;101334.03;;;39.35;16.00
22241;BME280;11289;52.524;13.694;2023-07-08T12:46:48;101325.81;;;39.65;15.20
22241;BME280;11289;52.524;13.694;2023-07-08T12:49:16;101322.94;;;39.71;15.51
22241;BME280;11289;52.524;13.694;2023-07-08T12:51:43;101311.13;;;39.11;14.80
22241;BME280;11289;52.524;13.694;2023-07-08T12:54:11;101321.66;;;39.40;14.98
22241;BME280;11289;52.524;13.694;2023-07-08T12:56:44;101318.38;;;39.21;16.14
22241;BME280;11289;52.524;13.694;2023-07-08T12:59:17;101300.28;;;39.38;16.46
22241;BME280;11289;52.524;13.694;2023-07-08T13:01:45;101322.66;;;39.75;16.29
22241;BME280;11289;52.524;13.694;2023-07-08T13:04:13;101311.66;;;39.90;15.97
22241;BME280;11289;52.524;13.694;2023-07-08T13:06:40;101314.97;;;40.26;15.35
22241;BME280;11289;52.524;13.694;2023-07-08T13:09:26;101318.22;;;39.85;15.56
22241;BME280;11289;52.524;13.694;2023-07-08T13:11:56;101311.81;;;40.35;15.87
22241;BME280;11289;52.524;13.694;2023-07-08T13:14:24;101305.53;;;40.60;15.71
22241;BME280;11289;52.524;13.694;2023-07-08T13:16:51;101304.72;;;40.48;15.04
22241;BME280;11289;52.524;13.694;2023-07-08T13:19:17;101300.97;;;40.36;14.90
22241;BME280;11289;52.524;13.694;2023-07-08T13:21:44;101301.91;;;39.99;14.95
22241;BME280;11289;52.524;13.694;2023-07-08T13:24:11;101305.84;;;39.90;15.08